sensor_id;sensor_type;location;lat;lon;timestamp;P1;durP1;ratioP1;P2;durP2;ratioP2
13204;SDS011;6667;52.634;9.226;2024-01-27T00:00:12;11.03;;;2.93;;
13204;SDS011;6667;52.634;9.226;2024-01-27T00:02:40;9.63;;;2.73;;
13204;SDS011;6667;52.634;9.226;2024-01-27T00:05:07;12.63;;;3.97;;
13204;SDS011;6667;52.634;9.226;2024-01-27T00:07:34;14.87;;;3.83;;
13204;SDS011;6667;52.634;9.226;2024-01-27T00:10:01;14.67;;;3.63;;
13204;SDS011;6667;52.634;9.226;2024-01-27T00:12:29;12.70;;;3.10;;
13204;SDS011;6667;52.634;9.226;2024-01-27T00:14:56;14.80;;;3.40;;
13204;SDS011;6667;52.634;9.226;2024-01-27T00:17:22;13.07;;;3.37;;
13204;SDS011;6667;52.634;9.226;2024-01-27T00:19:51;11.43;;;2.57;;
13204;SDS011;6667;52.634;9.226;2024-01-27T00:22:18;16.07;;;4.00;;
13204;SDS011;6667;52.634;9.226;2024-01-27T00:24:45;17.27;;;3.23;;
13204;SDS011;6667;52.634;9.226;2024-01-27T00:27:12;19.20;;;3.63;;
13204;SDS011;6667;52.634;9.226;2024-01-27T00:29:40;16.73;;;3.13;;
13204;SDS011;6667;52.634;9.226;2024-01-27T00:32:06;10.93;;;3.20;;
13204;SDS011;6667;52.634;9.226;2024-01-27T00:34:33;15.20;;;3.63;;
13204;SDS011;6667;52.634;9.226;2024-01-27T00:37:00;15.87;;;3.53;;
13204;SDS011;6667;52.634;9.226;2024-01-27T00:39:26;13.97;;;3.63;;
13204;SDS011;6667;52.634;9.226;2024-01-27T00:41:53;12.33;;;3.30;;
13204;SDS011;6667;52.634;9.226;2024-01-27T00:44:20;10.57;;;3.40;;
13204;SDS011;6667;52.634;9.226;2024-01-27T00:46:48;11.00;;;3.77;;
13204;SDS011;6667;52.634;9.226;2024-01-27T00:49:15;11.20;;;3.37;;
13204;SDS011;6667;52.634;9.226;2024-01-27T00:51:41;15.70;;;3.50;;
13204;SDS011;6667;52.634;9.226;2024-01-27T00:54:08;8.43;;;2.43;;
13204;SDS011;6667;52.634;9.226;2024-01-27T00:56:34;14.47;;;2.90;;
13204;SDS011;6667;52.634;9.226;2024-01-27T00:59:01;15.60;;;3.20;;
13204;SDS011;6667;52.634;9.226;2024-01-27T01:01:28;17.70;;;3.67;;
13204;SDS011;6667;52.634;9.226;2024-01-27T01:03:56;14.70;;;3.50;;
13204;SDS011;6667;52.634;9.226;2024-01-27T01:06:23;12.37;;;3.63;;
13204;SDS011;6667;52.634;9.226;2024-01-27T01:08:49;13.13;;;3.90;;
13204;SDS011;6667;52.634;9.226;2024-01-27T01:11:16;11.47;;;3.43;;
13204;SDS011;6667;52.634;9.226;2024-01-27T01:13:42;19.77;;;4.27;;
13204;SDS011;6667;52.634;9.226;2024-01-27T01:16:09;12.17;;;2.60;;
13204;SDS011;6667;52.634;9.226;2024-01-27T01:18:36;12.90;;;3.30;;
13204;SDS011;6667;52.634;9.226;2024-01-27T01:21:04;9.97;;;2.97;;
13204;SDS011;6667;52.634;9.226;2024-01-27T01:23:30;18.10;;;4.00;;
13204;SDS011;6667;52.634;9.226;2024-01-27T01:25:57;15.57;;;4.60;;
13204;SDS011;6667;52.634;9.226;2024-01-27T01:28:24;12.57;;;3.47;;
13204;SDS011;6667;52.634;9.226;2024-01-27T01:30:50;12.43;;;3.33;;
13204;SDS011;6667;52.634;9.226;2024-01-27T01:33:17;22.87;;;4.73;;
13204;SDS011;6667;52.634;9.226;2024-01-27T01:35:44;11.63;;;3.10;;
13204;SDS011;6667;52.634;9.226;2024-01-27T01:38:12;12.60;;;3.40;;
13204;SDS011;6667;52.634;9.226;2024-01-27T01:40:38;11.20;;;3.77;;
13204;SDS011;6667;52.634;9.226;2024-01-27T01:43:08;16.33;;;3.37;;
13204;SDS011;6667;52.634;9.226;2024-01-27T01:45:35;12.33;;;2.60;;
13204;SDS011;6667;52.634;9.226;2024-01-27T01:48:02;18.60;;;3.97;;
13204;SDS011;6667;52.634;9.226;2024-01-27T01:50:30;11.60;;;3.93;;
13204;SDS011;6667;52.634;9.226;2024-01-27T01:52:57;12.07;;;3.67;;
13204;SDS011;6667;52.634;9.226;2024-01-27T01:55:25;17.37;;;3.77;;
13204;SDS011;6667;52.634;9.226;2024-01-27T01:57:52;14.90;;;3.10;;
13204;SDS011;6667;52.634;9.226;2024-01-27T02:00:19;12.60;;;3.30;;
13204;SDS011;6667;52.634;9.226;2024-01-27T02:02:46;11.67;;;3.73;;
13204;SDS011;6667;52.634;9.226;2024-01-27T02:05:12;7.70;;;2.70;;
13204;SDS011;6667;52.634;9.226;2024-01-27T02:07:39;13.23;;;3.97;;
13204;SDS011;6667;52.634;9.226;2024-01-27T02:10:07;11.07;;;3.60;;
13204;SDS011;6667;52.634;9.226;2024-01-27T02:12:40;15.43;;;3.63;;
13204;SDS011;6667;52.634;9.226;2024-01-27T02:15:09;20.23;;;5.57;;
13204;SDS011;6667;52.634;9.226;2024-01-27T02:17:36;16.50;;;3.83;;
13204;SDS011;6667;52.634;9.226;2024-01-27T02:20:03;13.70;;;3.53;;
13204;SDS011;6667;52.634;9.226;2024-01-27T02:22:31;13.87;;;3.87;;
13204;SDS011;6667;52.634;9.226;2024-01-27T02:24:59;17.10;;;3.77;;
13204;SDS011;6667;52.634;9.226;2024-01-27T02:27:26;13.63;;;4.03;;
13204;SDS011;6667;52.634;9.226;2024-01-27T02:29:53;13.03;;;3.90;;
13204;SDS011;6667;52.634;9.226;2024-01-27T02:32:19;10.57;;;3.77;;
13204;SDS011;6667;52.634;9.226;2024-01-27T02:34:46;10.20;;;3.57;;
13204;SDS011;6667;52.634;9.226;2024-01-27T02:37:12;14.17;;;2.83;;
13204;SDS011;6667;52.634;9.226;2024-01-27T02:39:40;12.20;;;3.83;;
13204;SDS011;6667;52.634;9.226;2024-01-27T02:42:08;11.60;;;3.60;;
13204;SDS011;6667;52.634;9.226;2024-01-27T02:44:34;15.47;;;4.17;;
13204;SDS011;6667;52.634;9.226;2024-01-27T02:47:01;14.20;;;3.97;;
13204;SDS011;6667;52.634;9.226;2024-01-27T02:49:28;13.03;;;3.53;;
13204;SDS011;6667;52.634;9.226;2024-01-27T02:51:54;10.23;;;3.30;;
13204;SDS011;6667;52.634;9.226;2024-01-27T02:54:21;13.90;;;4.30;;
13204;SDS011;6667;52.634;9.226;2024-01-27T02:56:48;12.27;;;3.93;;
13204;SDS011;6667;52.634;9.226;2024-01-27T02:59:15;16.50;;;3.50;;
13204;SDS011;6667;52.634;9.226;2024-01-27T03:01:42;11.60;;;3.30;;
13204;SDS011;6667;52.634;9.226;2024-01-27T03:04:09;13.83;;;4.17;;
13204;SDS011;6667;52.634;9.226;2024-01-27T03:06:35;10.10;;;3.40;;
13204;SDS011;6667;52.634;9.226;2024-01-27T03:09:02;17.03;;;3.60;;
13204;SDS011;6667;52.634;9.226;2024-01-27T03:11:29;12.07;;;4.20;;
13204;SDS011;6667;52.634;9.226;2024-01-27T03:13:56;9.17;;;3.27;;
13204;SDS011;6667;52.634;9.226;2024-01-27T03:16:24;9.43;;;4.90;;
13204;SDS011;6667;52.634;9.226;2024-01-27T03:18:50;9.97;;;3.23;;
13204;SDS011;6667;52.634;9.226;2024-01-27T03:21:17;12.33;;;3.70;;
13204;SDS011;6667;52.634;9.226;2024-01-27T03:23:44;10.23;;;3.03;;
13204;SDS011;6667;52.634;9.226;2024-01-27T03:26:10;30.90;;;3.73;;
13204;SDS011;6667;52.634;9.226;2024-01-27T03:28:37;12.67;;;3.60;;
13204;SDS011;6667;52.634;9.226;2024-01-27T03:31:03;13.00;;;3.30;;
13204;SDS011;6667;52.634;9.226;2024-01-27T03:33:31;10.40;;;3.37;;
13204;SDS011;6667;52.634;9.226;2024-01-27T03:35:58;17.70;;;3.87;;
13204;SDS011;6667;52.634;9.226;2024-01-27T03:38:25;12.93;;;3.57;;
13204;SDS011;6667;52.634;9.226;2024-01-27T03:40:51;13.87;;;3.20;;
13204;SDS011;6667;52.634;9.226;2024-01-27T03:43:18;13.70;;;3.37;;
13204;SDS011;6667;52.634;9.226;2024-01-27T03:45:45;15.60;;;4.73;;
13204;SDS011;6667;52.634;9.226;2024-01-27T03:48:11;17.50;;;4.30;;
13204;SDS011;6667;52.634;9.226;2024-01-27T03:50:39;14.27;;;3.17;;
13204;SDS011;6667;52.634;9.226;2024-01-27T03:53:06;14.13;;;3.67;;
13204;SDS011;6667;52.634;9.226;2024-01-27T03:55:32;14.67;;;3.30;;
13204;SDS011;6667;52.634;9.226;2024-01-27T03:57:59;7.23;;;2.63;;
13204;SDS011;6667;52.634;9.226;2024-01-27T04:00:26;10.93;;;3.10;;
13204;SDS011;6667;52.634;9.226;2024-01-27T04:02:54;10.87;;;4.17;;
13204;SDS011;6667;52.634;9.226;2024-01-27T04:05:21;17.20;;;5.27;;
13204;SDS011;6667;52.634;9.226;2024-01-27T04:07:49;14.73;;;3.40;;
13204;SDS011;6667;52.634;9.226;2024-01-27T04:10:16;13.53;;;4.00;;
13204;SDS011;6667;52.634;9.226;2024-01-27T04:12:43;14.20;;;3.87;;
13204;SDS011;6667;52.634;9.226;2024-01-27T04:15:10;10.00;;;3.37;;
13204;SDS011;6667;52.634;9.226;2024-01-27T04:17:36;15.90;;;3.70;;
13204;SDS011;6667;52.634;9.226;2024-01-27T04:20:05;14.93;;;4.13;;
13204;SDS011;6667;52.634;9.226;2024-01-27T04:22:33;16.10;;;4.00;;
13204;SDS011;6667;52.634;9.226;2024-01-27T04:25:01;11.10;;;3.83;;
13204;SDS011;6667;52.634;9.226;2024-01-27T04:27:28;16.70;;;3.37;;
13204;SDS011;6667;52.634;9.226;2024-01-27T04:29:55;16.23;;;3.70;;
13204;SDS011;6667;52.634;9.226;2024-01-27T04:32:22;9.73;;;3.10;;
13204;SDS011;6667;52.634;9.226;2024-01-27T04:34:50;10.77;;;3.77;;
13204;SDS011;6667;52.634;9.226;2024-01-27T04:37:17;9.97;;;3.40;;
13204;SDS011;6667;52.634;9.226;2024-01-27T04:39:43;19.00;;;3.90;;
13204;SDS011;6667;52.634;9.226;2024-01-27T04:42:11;11.73;;;3.17;;
13204;SDS011;6667;52.634;9.226;2024-01-27T04:44:39;10.77;;;3.00;;
13204;SDS011;6667;52.634;9.226;2024-01-27T04:47:06;15.77;;;4.20;;
13204;SDS011;6667;52.634;9.226;2024-01-27T04:49:33;8.93;;;3.47;;
13204;SDS011;6667;52.634;9.226;2024-01-27T04:51:59;10.60;;;3.07;;
13204;SDS011;6667;52.634;9.226;2024-01-27T04:54:26;14.30;;;4.20;;
13204;SDS011;6667;52.634;9.226;2024-01-27T04:56:53;12.07;;;3.57;;
13204;SDS011;6667;52.634;9.226;2024-01-27T04:59:21;14.40;;;3.63;;
13204;SDS011;6667;52.634;9.226;2024-01-27T05:01:47;13.93;;;2.90;;
13204;SDS011;6667;52.634;9.226;2024-01-27T05:04:14;13.73;;;3.70;;
13204;SDS011;6667;52.634;9.226;2024-01-27T05:06:43;9.90;;;3.07;;
13204;SDS011;6667;52.634;9.226;2024-01-27T05:09:10;18.37;;;4.53;;
13204;SDS011;6667;52.634;9.226;2024-01-27T05:11:37;13.03;;;3.47;;
13204;SDS011;6667;52.634;9.226;2024-01-27T05:14:03;13.50;;;3.80;;
13204;SDS011;6667;52.634;9.226;2024-01-27T05:16:31;9.40;;;3.00;;
13204;SDS011;6667;52.634;9.226;2024-01-27T05:18:59;9.87;;;3.70;;
13204;SDS011;6667;52.634;9.226;2024-01-27T05:21:26;13.93;;;3.57;;
13204;SDS011;6667;52.634;9.226;2024-01-27T05:23:52;8.57;;;3.33;;
13204;SDS011;6667;52.634;9.226;2024-01-27T05:26:19;9.83;;;3.03;;
13204;SDS011;6667;52.634;9.226;2024-01-27T05:28:46;22.37;;;5.03;;
13204;SDS011;6667;52.634;9.226;2024-01-27T05:31:13;11.60;;;3.90;;
13204;SDS011;6667;52.634;9.226;2024-01-27T05:33:42;17.20;;;5.10;;
13204;SDS011;6667;52.634;9.226;2024-01-27T05:36:08;11.50;;;3.97;;
13204;SDS011;6667;52.634;9.226;2024-01-27T05:38:35;12.20;;;3.57;;
13204;SDS011;6667;52.634;9.226;2024-01-27T05:41:02;13.73;;;4.07;;
13204;SDS011;6667;52.634;9.226;2024-01-27T05:43:29;15.97;;;4.00;;
13204;SDS011;6667;52.634;9.226;2024-01-27T05:45:56;14.57;;;4.07;;
13204;SDS011;6667;52.634;9.226;2024-01-27T05:48:22;8.00;;;3.47;;
13204;SDS011;6667;52.634;9.226;2024-01-27T05:50:56;12.87;;;3.70;;
13204;SDS011;6667;52.634;9.226;2024-01-27T05:53:23;12.40;;;3.73;;
13204;SDS011;6667;52.634;9.226;2024-01-27T05:55:49;12.73;;;3.80;;
13204;SDS011;6667;52.634;9.226;2024-01-27T05:58:16;7.50;;;3.53;;
13204;SDS011;6667;52.634;9.226;2024-01-27T06:00:46;16.73;;;4.30;;
13204;SDS011;6667;52.634;9.226;2024-01-27T06:03:12;14.00;;;3.90;;
13204;SDS011;6667;52.634;9.226;2024-01-27T06:05:40;13.37;;;3.77;;
13204;SDS011;6667;52.634;9.226;2024-01-27T06:08:08;14.37;;;3.57;;
13204;SDS011;6667;52.634;9.226;2024-01-27T06:10:35;10.07;;;4.67;;
13204;SDS011;6667;52.634;9.226;2024-01-27T06:13:02;12.27;;;3.60;;
13204;SDS011;6667;52.634;9.226;2024-01-27T06:15:29;9.00;;;3.97;;
13204;SDS011;6667;52.634;9.226;2024-01-27T06:17:56;10.67;;;3.57;;
13204;SDS011;6667;52.634;9.226;2024-01-27T06:20:23;8.87;;;3.70;;
13204;SDS011;6667;52.634;9.226;2024-01-27T06:22:50;10.00;;;3.20;;
13204;SDS011;6667;52.634;9.226;2024-01-27T06:25:19;13.97;;;4.53;;
13204;SDS011;6667;52.634;9.226;2024-01-27T06:27:46;9.53;;;3.30;;
13204;SDS011;6667;52.634;9.226;2024-01-27T06:30:13;10.23;;;3.17;;
13204;SDS011;6667;52.634;9.226;2024-01-27T06:32:40;12.77;;;4.60;;
13204;SDS011;6667;52.634;9.226;2024-01-27T06:35:07;10.83;;;3.80;;
13204;SDS011;6667;52.634;9.226;2024-01-27T06:37:34;9.60;;;4.13;;
13204;SDS011;6667;52.634;9.226;2024-01-27T06:40:01;11.17;;;3.87;;
13204;SDS011;6667;52.634;9.226;2024-01-27T06:42:29;15.07;;;3.93;;
13204;SDS011;6667;52.634;9.226;2024-01-27T06:44:56;13.17;;;3.77;;
13204;SDS011;6667;52.634;9.226;2024-01-27T06:47:23;12.77;;;3.30;;
13204;SDS011;6667;52.634;9.226;2024-01-27T06:49:48;12.43;;;3.93;;
13204;SDS011;6667;52.634;9.226;2024-01-27T06:52:15;14.00;;;3.43;;
13204;SDS011;6667;52.634;9.226;2024-01-27T06:54:41;13.93;;;3.90;;
13204;SDS011;6667;52.634;9.226;2024-01-27T06:57:17;13.07;;;4.27;;
13204;SDS011;6667;52.634;9.226;2024-01-27T06:59:46;13.50;;;3.50;;
13204;SDS011;6667;52.634;9.226;2024-01-27T07:02:17;10.13;;;3.63;;
13204;SDS011;6667;52.634;9.226;2024-01-27T07:04:44;9.87;;;2.93;;
13204;SDS011;6667;52.634;9.226;2024-01-27T07:07:10;10.67;;;3.37;;
13204;SDS011;6667;52.634;9.226;2024-01-27T07:09:37;9.07;;;3.20;;
13204;SDS011;6667;52.634;9.226;2024-01-27T07:12:04;9.27;;;2.77;;
13204;SDS011;6667;52.634;9.226;2024-01-27T07:14:31;12.67;;;3.97;;
13204;SDS011;6667;52.634;9.226;2024-01-27T07:16:59;10.87;;;4.23;;
13204;SDS011;6667;52.634;9.226;2024-01-27T07:19:25;11.30;;;3.83;;
13204;SDS011;6667;52.634;9.226;2024-01-27T07:21:53;12.43;;;3.40;;
13204;SDS011;6667;52.634;9.226;2024-01-27T07:24:19;11.50;;;3.77;;
13204;SDS011;6667;52.634;9.226;2024-01-27T07:26:46;12.70;;;3.10;;
13204;SDS011;6667;52.634;9.226;2024-01-27T07:29:13;9.00;;;3.60;;
13204;SDS011;6667;52.634;9.226;2024-01-27T07:31:39;11.40;;;4.23;;
13204;SDS011;6667;52.634;9.226;2024-01-27T07:34:07;8.83;;;3.23;;
13204;SDS011;6667;52.634;9.226;2024-01-27T07:36:34;13.40;;;3.50;;
13204;SDS011;6667;52.634;9.226;2024-01-27T07:39:01;8.37;;;3.30;;
13204;SDS011;6667;52.634;9.226;2024-01-27T07:41:29;15.33;;;4.23;;
13204;SDS011;6667;52.634;9.226;2024-01-27T07:43:56;11.83;;;4.47;;
13204;SDS011;6667;52.634;9.226;2024-01-27T07:46:23;9.53;;;4.00;;
13204;SDS011;6667;52.634;9.226;2024-01-27T07:48:49;9.60;;;2.97;;
13204;SDS011;6667;52.634;9.226;2024-01-27T07:51:17;8.47;;;3.23;;
13204;SDS011;6667;52.634;9.226;2024-01-27T07:53:44;10.53;;;3.53;;
13204;SDS011;6667;52.634;9.226;2024-01-27T07:56:10;9.57;;;3.63;;
13204;SDS011;6667;52.634;9.226;2024-01-27T07:58:37;11.00;;;3.73;;
13204;SDS011;6667;52.634;9.226;2024-01-27T08:01:04;9.33;;;3.37;;
13204;SDS011;6667;52.634;9.226;2024-01-27T08:03:30;10.10;;;3.90;;
13204;SDS011;6667;52.634;9.226;2024-01-27T08:05:57;10.87;;;3.97;;
13204;SDS011;6667;52.634;9.226;2024-01-27T08:08:25;13.37;;;4.33;;
13204;SDS011;6667;52.634;9.226;2024-01-27T08:10:52;9.03;;;4.20;;
13204;SDS011;6667;52.634;9.226;2024-01-27T08:13:18;20.20;;;4.57;;
13204;SDS011;6667;52.634;9.226;2024-01-27T08:15:45;12.37;;;4.90;;
13204;SDS011;6667;52.634;9.226;2024-01-27T08:18:12;9.67;;;4.57;;
13204;SDS011;6667;52.634;9.226;2024-01-27T08:20:38;9.67;;;3.73;;
13204;SDS011;6667;52.634;9.226;2024-01-27T08:23:05;7.50;;;3.87;;
13204;SDS011;6667;52.634;9.226;2024-01-27T08:25:33;9.60;;;4.40;;
13204;SDS011;6667;52.634;9.226;2024-01-27T08:28:00;17.67;;;4.73;;
13204;SDS011;6667;52.634;9.226;2024-01-27T08:30:26;11.73;;;4.43;;
13204;SDS011;6667;52.634;9.226;2024-01-27T08:32:53;9.73;;;4.27;;
13204;SDS011;6667;52.634;9.226;2024-01-27T08:35:19;11.03;;;4.77;;
13204;SDS011;6667;52.634;9.226;2024-01-27T08:37:46;9.93;;;3.87;;
13204;SDS011;6667;52.634;9.226;2024-01-27T08:40:13;14.07;;;4.37;;
13204;SDS011;6667;52.634;9.226;2024-01-27T08:42:43;11.37;;;5.13;;
13204;SDS011;6667;52.634;9.226;2024-01-27T08:45:10;11.37;;;5.30;;
13204;SDS011;6667;52.634;9.226;2024-01-27T08:47:36;14.03;;;4.60;;
13204;SDS011;6667;52.634;9.226;2024-01-27T08:50:03;13.20;;;5.10;;
13204;SDS011;6667;52.634;9.226;2024-01-27T08:52:31;14.80;;;5.23;;
13204;SDS011;6667;52.634;9.226;2024-01-27T08:54:57;14.47;;;4.80;;
13204;SDS011;6667;52.634;9.226;2024-01-27T08:57:24;9.57;;;4.93;;
13204;SDS011;6667;52.634;9.226;2024-01-27T08:59:52;13.03;;;5.50;;
13204;SDS011;6667;52.634;9.226;2024-01-27T09:02:18;11.23;;;6.37;;
13204;SDS011;6667;52.634;9.226;2024-01-27T09:04:45;15.67;;;6.87;;
13204;SDS011;6667;52.634;9.226;2024-01-27T09:07:12;10.83;;;5.60;;
13204;SDS011;6667;52.634;9.226;2024-01-27T09:09:39;13.63;;;4.70;;
13204;SDS011;6667;52.634;9.226;2024-01-27T09:12:05;19.83;;;5.73;;
13204;SDS011;6667;52.634;9.226;2024-01-27T09:14:32;16.37;;;7.20;;
13204;SDS011;6667;52.634;9.226;2024-01-27T09:17:00;14.83;;;7.13;;
13204;SDS011;6667;52.634;9.226;2024-01-27T09:19:27;15.67;;;6.70;;
13204;SDS011;6667;52.634;9.226;2024-01-27T09:21:54;18.67;;;6.27;;
13204;SDS011;6667;52.634;9.226;2024-01-27T09:24:20;12.47;;;6.37;;
13204;SDS011;6667;52.634;9.226;2024-01-27T09:26:47;15.57;;;6.33;;
13204;SDS011;6667;52.634;9.226;2024-01-27T09:29:14;16.73;;;6.60;;
13204;SDS011;6667;52.634;9.226;2024-01-27T09:31:40;16.23;;;6.37;;
13204;SDS011;6667;52.634;9.226;2024-01-27T09:34:08;15.07;;;6.60;;
13204;SDS011;6667;52.634;9.226;2024-01-27T09:36:35;15.73;;;7.23;;
13204;SDS011;6667;52.634;9.226;2024-01-27T09:39:01;15.13;;;7.53;;
13204;SDS011;6667;52.634;9.226;2024-01-27T09:41:28;12.97;;;7.07;;
13204;SDS011;6667;52.634;9.226;2024-01-27T09:43:57;23.67;;;8.87;;
13204;SDS011;6667;52.634;9.226;2024-01-27T09:46:27;15.73;;;8.37;;
13204;SDS011;6667;52.634;9.226;2024-01-27T09:48:54;21.97;;;7.90;;
13204;SDS011;6667;52.634;9.226;2024-01-27T09:51:22;20.63;;;8.53;;
13204;SDS011;6667;52.634;9.226;2024-01-27T09:53:50;22.43;;;8.70;;
13204;SDS011;6667;52.634;9.226;2024-01-27T09:56:17;17.43;;;7.97;;
13204;SDS011;6667;52.634;9.226;2024-01-27T09:58:45;17.70;;;8.37;;
13204;SDS011;6667;52.634;9.226;2024-01-27T10:01:12;21.83;;;9.63;;
13204;SDS011;6667;52.634;9.226;2024-01-27T10:03:41;20.30;;;9.07;;
13204;SDS011;6667;52.634;9.226;2024-01-27T10:06:08;23.67;;;9.57;;
13204;SDS011;6667;52.634;9.226;2024-01-27T10:08:37;17.87;;;8.43;;
13204;SDS011;6667;52.634;9.226;2024-01-27T10:11:05;21.80;;;8.60;;
13204;SDS011;6667;52.634;9.226;2024-01-27T10:13:33;17.87;;;9.17;;
13204;SDS011;6667;52.634;9.226;2024-01-27T10:16:00;18.83;;;8.33;;
13204;SDS011;6667;52.634;9.226;2024-01-27T10:18:27;15.20;;;8.43;;
13204;SDS011;6667;52.634;9.226;2024-01-27T10:20:54;30.60;;;9.17;;
13204;SDS011;6667;52.634;9.226;2024-01-27T10:23:21;22.20;;;8.57;;
13204;SDS011;6667;52.634;9.226;2024-01-27T10:25:49;15.57;;;9.13;;
13204;SDS011;6667;52.634;9.226;2024-01-27T10:28:16;18.23;;;8.37;;
13204;SDS011;6667;52.634;9.226;2024-01-27T10:30:43;23.80;;;8.93;;
13204;SDS011;6667;52.634;9.226;2024-01-27T10:33:11;20.27;;;8.93;;
13204;SDS011;6667;52.634;9.226;2024-01-27T10:35:39;21.33;;;8.27;;
13204;SDS011;6667;52.634;9.226;2024-01-27T10:38:06;16.37;;;8.47;;
13204;SDS011;6667;52.634;9.226;2024-01-27T10:40:32;16.17;;;7.47;;
13204;SDS011;6667;52.634;9.226;2024-01-27T10:43:03;21.50;;;8.67;;
13204;SDS011;6667;52.634;9.226;2024-01-27T10:45:34;16.90;;;8.80;;
13204;SDS011;6667;52.634;9.226;2024-01-27T10:48:02;18.60;;;7.70;;
13204;SDS011;6667;52.634;9.226;2024-01-27T10:50:30;17.80;;;7.47;;
13204;SDS011;6667;52.634;9.226;2024-01-27T10:53:00;18.97;;;7.63;;
13204;SDS011;6667;52.634;9.226;2024-01-27T10:55:28;15.60;;;6.63;;
13204;SDS011;6667;52.634;9.226;2024-01-27T10:57:56;9.87;;;6.30;;
13204;SDS011;6667;52.634;9.226;2024-01-27T11:00:28;14.63;;;6.97;;
13204;SDS011;6667;52.634;9.226;2024-01-27T11:02:55;16.67;;;6.27;;
13204;SDS011;6667;52.634;9.226;2024-01-27T11:05:24;16.00;;;6.67;;
13204;SDS011;6667;52.634;9.226;2024-01-27T11:07:53;16.50;;;6.90;;
13204;SDS011;6667;52.634;9.226;2024-01-27T11:10:20;17.90;;;6.10;;
13204;SDS011;6667;52.634;9.226;2024-01-27T11:12:47;14.97;;;6.77;;
13204;SDS011;6667;52.634;9.226;2024-01-27T11:15:15;16.03;;;6.07;;
13204;SDS011;6667;52.634;9.226;2024-01-27T11:17:43;19.73;;;6.37;;
13204;SDS011;6667;52.634;9.226;2024-01-27T11:20:11;13.53;;;6.47;;
13204;SDS011;6667;52.634;9.226;2024-01-27T11:22:40;13.07;;;6.23;;
13204;SDS011;6667;52.634;9.226;2024-01-27T11:25:12;15.93;;;6.37;;
13204;SDS011;6667;52.634;9.226;2024-01-27T11:27:41;15.93;;;6.07;;
13204;SDS011;6667;52.634;9.226;2024-01-27T11:30:23;10.83;;;5.37;;
13204;SDS011;6667;52.634;9.226;2024-01-27T11:32:53;13.37;;;4.90;;
13204;SDS011;6667;52.634;9.226;2024-01-27T11:35:21;13.17;;;5.33;;
13204;SDS011;6667;52.634;9.226;2024-01-27T11:37:48;15.30;;;5.67;;
13204;SDS011;6667;52.634;9.226;2024-01-27T11:40:15;16.47;;;4.87;;
13204;SDS011;6667;52.634;9.226;2024-01-27T11:42:41;8.93;;;4.93;;
13204;SDS011;6667;52.634;9.226;2024-01-27T11:45:08;16.77;;;6.67;;
13204;SDS011;6667;52.634;9.226;2024-01-27T11:47:35;11.83;;;5.10;;
13204;SDS011;6667;52.634;9.226;2024-01-27T11:50:04;10.03;;;5.27;;
13204;SDS011;6667;52.634;9.226;2024-01-27T11:52:31;11.50;;;4.77;;
13204;SDS011;6667;52.634;9.226;2024-01-27T11:54:57;12.80;;;5.77;;
13204;SDS011;6667;52.634;9.226;2024-01-27T11:57:25;15.23;;;5.90;;
13204;SDS011;6667;52.634;9.226;2024-01-27T11:59:52;15.60;;;5.27;;
13204;SDS011;6667;52.634;9.226;2024-01-27T12:02:19;11.77;;;4.70;;
13204;SDS011;6667;52.634;9.226;2024-01-27T12:04:47;8.90;;;4.67;;
13204;SDS011;6667;52.634;9.226;2024-01-27T12:07:16;14.77;;;6.13;;
13204;SDS011;6667;52.634;9.226;2024-01-27T12:09:48;11.67;;;5.00;;
13204;SDS011;6667;52.634;9.226;2024-01-27T12:12:17;14.13;;;4.47;;
13204;SDS011;6667;52.634;9.226;2024-01-27T12:14:47;11.97;;;4.90;;
13204;SDS011;6667;52.634;9.226;2024-01-27T12:17:18;13.20;;;5.00;;
13204;SDS011;6667;52.634;9.226;2024-01-27T12:19:45;15.67;;;5.33;;
13204;SDS011;6667;52.634;9.226;2024-01-27T12:22:22;11.13;;;4.93;;
13204;SDS011;6667;52.634;9.226;2024-01-27T12:24:50;9.77;;;4.27;;
13204;SDS011;6667;52.634;9.226;2024-01-27T12:27:17;12.30;;;4.20;;
13204;SDS011;6667;52.634;9.226;2024-01-27T12:29:45;8.13;;;3.73;;
13204;SDS011;6667;52.634;9.226;2024-01-27T12:32:14;11.73;;;4.00;;
13204;SDS011;6667;52.634;9.226;2024-01-27T12:34:40;15.80;;;4.73;;
13204;SDS011;6667;52.634;9.226;2024-01-27T12:37:08;12.40;;;4.40;;
13204;SDS011;6667;52.634;9.226;2024-01-27T12:39:38;14.47;;;4.50;;
13204;SDS011;6667;52.634;9.226;2024-01-27T12:42:09;13.10;;;4.63;;
13204;SDS011;6667;52.634;9.226;2024-01-27T12:44:35;16.20;;;4.50;;
13204;SDS011;6667;52.634;9.226;2024-01-27T12:47:02;13.33;;;4.63;;
13204;SDS011;6667;52.634;9.226;2024-01-27T12:49:29;11.97;;;4.93;;
13204;SDS011;6667;52.634;9.226;2024-01-27T12:51:55;11.60;;;4.07;;
13204;SDS011;6667;52.634;9.226;2024-01-27T12:54:22;13.63;;;5.67;;
13204;SDS011;6667;52.634;9.226;2024-01-27T12:56:50;15.20;;;4.33;;
13204;SDS011;6667;52.634;9.226;2024-01-27T12:59:17;11.17;;;4.53;;
13204;SDS011;6667;52.634;9.226;2024-01-27T13:01:43;10.93;;;4.00;;
13204;SDS011;6667;52.634;9.226;2024-01-27T13:04:10;8.57;;;3.83;;
13204;SDS011;6667;52.634;9.226;2024-01-27T13:06:36;11.30;;;4.17;;
13204;SDS011;6667;52.634;9.226;2024-01-27T13:09:03;13.13;;;4.57;;
13204;SDS011;6667;52.634;9.226;2024-01-27T13:11:31;13.90;;;6.07;;
13204;SDS011;6667;52.634;9.226;2024-01-27T13:13:59;14.10;;;4.83;;
13204;SDS011;6667;52.634;9.226;2024-01-27T13:16:29;15.17;;;4.87;;
13204;SDS011;6667;52.634;9.226;2024-01-27T13:18:56;12.57;;;5.30;;
13204;SDS011;6667;52.634;9.226;2024-01-27T13:21:23;9.13;;;4.50;;
13204;SDS011;6667;52.634;9.226;2024-01-27T13:23:50;13.83;;;4.10;;
13204;SDS011;6667;52.634;9.226;2024-01-27T13:26:17;15.87;;;5.37;;
13204;SDS011;6667;52.634;9.226;2024-01-27T13:28:44;12.80;;;4.63;;
13204;SDS011;6667;52.634;9.226;2024-01-27T13:31:13;13.80;;;4.03;;
13204;SDS011;6667;52.634;9.226;2024-01-27T13:36:21;9.90;;;4.57;;
13204;SDS011;6667;52.634;9.226;2024-01-27T13:38:48;10.80;;;3.93;;
13204;SDS011;6667;52.634;9.226;2024-01-27T13:41:14;9.17;;;3.77;;
13204;SDS011;6667;52.634;9.226;2024-01-27T13:43:41;9.17;;;3.43;;
13204;SDS011;6667;52.634;9.226;2024-01-27T13:46:08;8.83;;;3.00;;
13204;SDS011;6667;52.634;9.226;2024-01-27T13:48:43;13.37;;;3.57;;
13204;SDS011;6667;52.634;9.226;2024-01-27T13:51:10;12.47;;;2.97;;
13204;SDS011;6667;52.634;9.226;2024-01-27T13:53:37;13.50;;;3.53;;
13204;SDS011;6667;52.634;9.226;2024-01-27T13:56:04;8.53;;;3.53;;
13204;SDS011;6667;52.634;9.226;2024-01-27T13:58:32;10.27;;;3.63;;
13204;SDS011;6667;52.634;9.226;2024-01-27T14:00:59;11.43;;;3.83;;
13204;SDS011;6667;52.634;9.226;2024-01-27T14:03:34;13.97;;;3.67;;
13204;SDS011;6667;52.634;9.226;2024-01-27T14:06:03;8.33;;;3.60;;
13204;SDS011;6667;52.634;9.226;2024-01-27T14:08:30;9.53;;;3.67;;
13204;SDS011;6667;52.634;9.226;2024-01-27T14:10:57;11.77;;;3.47;;
13204;SDS011;6667;52.634;9.226;2024-01-27T14:13:27;15.10;;;3.90;;
13204;SDS011;6667;52.634;9.226;2024-01-27T14:16:04;9.63;;;2.83;;
13204;SDS011;6667;52.634;9.226;2024-01-27T14:18:31;11.23;;;3.20;;
13204;SDS011;6667;52.634;9.226;2024-01-27T14:20:58;14.07;;;3.00;;
13204;SDS011;6667;52.634;9.226;2024-01-27T14:23:26;8.47;;;3.27;;
13204;SDS011;6667;52.634;9.226;2024-01-27T14:25:53;7.73;;;3.50;;
13204;SDS011;6667;52.634;9.226;2024-01-27T14:28:21;14.00;;;3.53;;
13204;SDS011;6667;52.634;9.226;2024-01-27T14:30:48;13.43;;;3.93;;
13204;SDS011;6667;52.634;9.226;2024-01-27T14:33:17;8.77;;;3.27;;
13204;SDS011;6667;52.634;9.226;2024-01-27T14:35:45;9.40;;;3.93;;
13204;SDS011;6667;52.634;9.226;2024-01-27T14:38:13;9.73;;;3.23;;
13204;SDS011;6667;52.634;9.226;2024-01-27T14:40:44;7.43;;;3.73;;
13204;SDS011;6667;52.634;9.226;2024-01-27T14:43:11;7.83;;;2.90;;
13204;SDS011;6667;52.634;9.226;2024-01-27T14:45:44;9.07;;;3.27;;
13204;SDS011;6667;52.634;9.226;2024-01-27T14:48:10;9.43;;;3.20;;
13204;SDS011;6667;52.634;9.226;2024-01-27T14:50:37;12.00;;;3.80;;
13204;SDS011;6667;52.634;9.226;2024-01-27T14:53:04;13.07;;;4.27;;